logo
Search for airport 
image banner adimage banner adimage banner ad
image banner ad

LOAF - Baden Kh

Located in District Baden, Austria

ICAO - , IATA -

Data provided by Airmate  

General information

Coordinates: N48°0'2" E16°15'21"
Elevation is 792 feet MSL.
 
View others Airports in Lower Austria

Operational data

Special qualification required
Current time UTC:
Current local time:
Weather at : LOAV - Voslau ( 4 km )
METAR: LOAV 271500Z 17007KT CAVOK 27/14
TAF: TAF LOAV 271115Z 2712/2721 13004KT CAVOK TEMPO 2712/2717 15012KT
View NOTAMs / SUP AIP / TFR affecting this airport [VIEW]
Communications frequencies: [VIEW]

Runways:

Airport contact information

Address: District Baden Austria

Satellite view of LOAF